Time;durP1;ratioP1;P1;durP2;ratioP2;P2;SDS_P1;SDS_P2;PMS_P1;PMS_P2;Temp;Humidity;BMP_temperature;BMP_pressure;BME280_temperature;BME280_humidity;BME280_pressure;Samples;Min_cycle;Max_cycle;Signal;HPM_P1;HPM_P2
2021/12/04 00:01:51;;;;;;;;;;;22.20;58.50;;;;;;5035094;28;19933;-58
2021/12/04 00:04:27;;;;;;;;;;;22.20;58.40;;;;;;5034886;28;19933;-60
2021/12/04 00:06:54;;;;;;;;;;;22.20;58.50;;;;;;5035311;28;19948;-60
2021/12/04 00:09:22;;;;;;;;;;;22.20;58.40;;;;;;5035214;28;19929;-59
2021/12/04 00:12:03;;;;;;;;;;;22.20;58.50;;;;;;5034069;28;19929;-59
2021/12/04 00:14:31;;;;;;;;;;;22.20;58.50;;;;;;5033653;28;19925;-58
2021/12/04 00:16:59;;;;;;;;;;;22.20;58.50;;;;;;5034815;28;20384;-59
2021/12/04 00:19:26;;;;;;;;;;;22.20;58.50;;;;;;5034766;28;19925;-57
2021/12/04 00:21:54;;;;;;;;;;;22.10;58.40;;;;;;5035570;28;19925;-57
2021/12/04 00:24:22;;;;;;;;;;;22.20;58.50;;;;;;5034561;28;20311;-53
2021/12/04 00:26:50;;;;;;;;;;;22.20;58.50;;;;;;5033509;28;20447;-60
2021/12/04 00:29:18;;;;;;;;;;;22.20;58.40;;;;;;5066451;28;20285;-57
2021/12/04 00:31:49;;;;;;;;;;;22.20;58.40;;;;;;5034499;28;19925;-56
2021/12/04 00:34:17;;;;;;;;;;;22.20;58.50;;;;;;5034596;28;19932;-59
2021/12/04 00:50:15;;;;;;;;;;;22.10;58.40;;;;;;5034538;28;19925;-58
2021/12/04 00:52:42;;;;;;;;;;;22.10;58.40;;;;;;5034286;28;19954;-55
2021/12/04 00:55:09;;;;;;;;;;;22.10;58.40;;;;;;5034029;28;19925;-58
2021/12/04 00:57:38;;;;;;;;;;;22.10;58.40;;;;;;5045038;28;19924;-57
2021/12/04 01:00:09;;;;;;;;;;;22.10;58.40;;;;;;5056265;28;19924;-53
2021/12/04 01:02:37;;;;;;;;;;;22.10;58.40;;;;;;5056312;28;20390;-59
2021/12/04 01:05:04;;;;;;;;;;;22.10;58.40;;;;;;5074189;28;20268;-58
2021/12/04 01:07:33;;;;;;;;;;;22.10;58.40;;;;;;5056112;28;19950;-59
2021/12/04 01:10:01;;;;;;;;;;;22.10;58.40;;;;;;5073857;28;20374;-52
2021/12/04 01:12:28;;;;;;;;;;;22.10;58.40;;;;;;5073011;28;19928;-57
2021/12/04 01:14:55;;;;;;;;;;;22.10;58.40;;;;;;5073996;28;20337;-59
2021/12/04 01:17:22;;;;;;;;;;;22.10;58.40;;;;;;5073732;28;19924;-56
2021/12/04 01:19:49;;;;;;;;;;;22.10;58.40;;;;;;5056310;28;19929;-58
2021/12/04 01:22:20;;;;;;;;;;;22.10;58.40;;;;;;5073510;28;19951;-55
2021/12/04 01:24:47;;;;;;;;;;;22.10;58.40;;;;;;5074017;28;19925;-58
2021/12/04 01:27:14;;;;;;;;;;;22.10;58.40;;;;;;5072582;28;19928;-58
2021/12/04 01:29:42;;;;;;;;;;;22.10;58.40;;;;;;5073617;28;19974;-58
2021/12/04 01:32:09;;;;;;;;;;;22.10;58.40;;;;;;5073590;28;20371;-58
2021/12/04 01:34:37;;;;;;;;;;;22.10;58.40;;;;;;5073409;28;20323;-57
2021/12/04 01:37:05;;;;;;;;;;;22.10;58.40;;;;;;5073568;28;20383;-59
2021/12/04 01:39:32;;;;;;;;;;;22.10;58.40;;;;;;5073824;28;19966;-58
2021/12/04 01:41:59;;;;;;;;;;;22.10;58.50;;;;;;5073152;28;19978;-57
2021/12/04 01:44:26;;;;;;;;;;;22.10;58.50;;;;;;5073437;28;19974;-56
2021/12/04 01:46:57;;;;;;;;;;;22.10;58.40;;;;;;5073459;28;19925;-57
2021/12/04 01:49:24;;;;;;;;;;;22.10;58.40;;;;;;5073460;28;19928;-59
2021/12/04 01:51:51;;;;;;;;;;;22.10;58.40;;;;;;5073415;28;20433;-55
2021/12/04 01:54:18;;;;;;;;;;;22.10;58.40;;;;;;5073429;28;19924;-58
2021/12/04 01:56:45;;;;;;;;;;;22.10;58.40;;;;;;5073357;28;19978;-59
2021/12/04 01:59:11;;;;;;;;;;;22.10;58.40;;;;;;5072069;28;19928;-59
2021/12/04 02:01:38;;;;;;;;;;;22.10;58.40;;;;;;5073642;28;19924;-59
2021/12/04 02:04:06;;;;;;;;;;;22.10;58.40;;;;;;5073156;28;20358;-58
2021/12/04 02:06:33;;;;;;;;;;;22.10;58.40;;;;;;5074259;28;19928;-58
2021/12/04 02:09:00;;;;;;;;;;;22.10;58.40;;;;;;5077158;28;19999;-55
2021/12/04 02:11:27;;;;;;;;;;;22.10;58.40;;;;;;5077119;28;19924;-57
2021/12/04 02:13:54;;;;;;;;;;;22.10;58.40;;;;;;5075920;28;19970;-59
2021/12/04 02:16:22;;;;;;;;;;;22.10;58.40;;;;;;5077312;28;19929;-60
2021/12/04 02:18:49;;;;;;;;;;;22.10;58.40;;;;;;5077259;28;19924;-54
2021/12/04 02:21:16;;;;;;;;;;;22.10;58.40;;;;;;5077201;28;19985;-59
2021/12/04 02:23:43;;;;;;;;;;;22.10;58.40;;;;;;5076689;28;19930;-56
2021/12/04 02:26:12;;;;;;;;;;;22.10;58.40;;;;;;5076824;28;19925;-58
2021/12/04 02:28:42;;;;;;;;;;;22.10;59.00;;;;;;5076633;28;20338;-53
2021/12/04 02:31:09;;;;;;;;;;;22.00;58.30;;;;;;5076713;28;19924;-56
2021/12/04 02:33:36;;;;;;;;;;;22.00;58.30;;;;;;5076796;28;19925;-57
2021/12/04 02:36:05;;;;;;;;;;;22.10;58.40;;;;;;5058958;28;19924;-60
2021/12/04 02:38:32;;;;;;;;;;;22.00;58.30;;;;;;5076876;28;19928;-54
2021/12/04 02:41:00;;;;;;;;;;;22.10;58.40;;;;;;5076838;28;19947;-58
2021/12/04 02:43:30;;;;;;;;;;;22.00;58.30;;;;;;5076169;28;19991;-55
2021/12/04 02:45:57;;;;;;;;;;;22.00;58.30;;;;;;5076501;28;19924;-55
2021/12/04 02:48:25;;;;;;;;;;;22.00;58.40;;;;;;5077566;28;19975;-53
2021/12/04 02:50:52;;;;;;;;;;;22.00;58.30;;;;;;5058762;28;20395;-53
2021/12/04 02:53:19;;;;;;;;;;;22.00;58.40;;;;;;5076147;28;19925;-59
2021/12/04 02:55:47;;;;;;;;;;;22.00;58.40;;;;;;5076220;28;20390;-57
2021/12/04 02:58:16;;;;;;;;;;;22.00;58.30;;;;;;5074914;28;20412;-54
2021/12/04 03:00:47;;;;;;;;;;;22.00;58.30;;;;;;5076471;28;19973;-54
2021/12/04 03:03:18;;;;;;;;;;;22.00;58.40;;;;;;5076582;28;19977;-58
2021/12/04 03:05:51;;;;;;;;;;;22.00;58.40;;;;;;5076075;28;19932;-58
2021/12/04 03:08:21;;;;;;;;;;;22.00;58.40;;;;;;5076079;28;19925;-58
2021/12/04 03:10:49;;;;;;;;;;;22.00;58.40;;;;;;5076319;28;20011;-55
2021/12/04 03:13:19;;;;;;;;;;;22.00;58.40;;;;;;5076260;28;19932;-58
2021/12/04 03:15:49;;;;;;;;;;;22.00;58.90;;;;;;5096391;28;20257;-59
2021/12/04 03:18:16;;;;;;;;;;;22.00;58.40;;;;;;5095536;28;20348;-55
2021/12/04 03:20:45;;;;;;;;;;;22.00;58.40;;;;;;5078480;28;19973;-60
2021/12/04 03:23:18;;;;;;;;;;;22.00;58.40;;;;;;5095830;28;19928;-58
2021/12/04 03:25:49;;;;;;;;;;;22.00;58.40;;;;;;5095983;28;19928;-59
2021/12/04 03:28:17;;;;;;;;;;;22.00;58.40;;;;;;5093704;28;20283;-57
2021/12/04 03:41:58;;;;;;;;;;;22.00;58.40;;;;;;5033522;28;19924;-59
2021/12/04 03:44:25;;;;;;;;;;;22.00;58.40;;;;;;5022280;28;19929;-58
2021/12/04 03:46:52;;;;;;;;;;;22.00;58.40;;;;;;5013562;28;19925;-59
2021/12/04 03:49:19;;;;;;;;;;;22.00;58.40;;;;;;5013565;28;19999;-59
2021/12/04 03:51:46;;;;;;;;;;;22.00;58.40;;;;;;5013724;28;20336;-58
2021/12/04 03:54:13;;;;;;;;;;;22.00;59.00;;;;;;5013190;28;19926;-59
2021/12/04 03:56:40;;;;;;;;;;;22.00;58.40;;;;;;5013439;28;19964;-57
2021/12/04 03:59:08;;;;;;;;;;;22.00;58.40;;;;;;5011746;28;19926;-57
2021/12/04 04:01:35;;;;;;;;;;;22.00;58.40;;;;;;5013314;28;19925;-57
2021/12/04 04:04:02;;;;;;;;;;;22.00;58.40;;;;;;5013295;28;19930;-59
2021/12/04 04:06:29;;;;;;;;;;;22.00;58.40;;;;;;5013230;28;19925;-56
2021/12/04 04:08:56;;;;;;;;;;;22.00;58.40;;;;;;5013436;28;19925;-57
2021/12/04 04:11:23;;;;;;;;;;;22.00;58.40;;;;;;5054884;28;20384;-58
2021/12/04 04:13:50;;;;;;;;;;;22.00;58.40;;;;;;5056571;28;20442;-59
2021/12/04 04:16:17;;;;;;;;;;;22.00;58.40;;;;;;5095196;28;19974;-59
2021/12/04 04:18:44;;;;;;;;;;;22.00;58.40;;;;;;5095236;28;19924;-59
2021/12/04 04:21:11;;;;;;;;;;;22.00;58.40;;;;;;5094893;28;19924;-57
2021/12/04 04:23:38;;;;;;;;;;;22.00;58.40;;;;;;5094987;28;19924;-58
2021/12/04 04:26:05;;;;;;;;;;;22.00;58.40;;;;;;5094797;28;19931;-58
2021/12/04 04:28:32;;;;;;;;;;;22.00;58.40;;;;;;5095046;28;20287;-54
2021/12/04 04:30:59;;;;;;;;;;;22.00;58.40;;;;;;5092118;28;19928;-58
2021/12/04 04:33:27;;;;;;;;;;;22.00;58.40;;;;;;5094848;28;20344;-51
2021/12/04 04:36:09;;;;;;;;;;;22.00;58.40;;;;;;5094849;28;19924;-55
2021/12/04 04:38:52;;;;;;;;;;;21.90;58.30;;;;;;5094897;28;19924;-57
2021/12/04 04:58:19;;;;;;;;;;;21.90;58.30;;;;;;5094067;28;19931;-58
2021/12/04 05:01:19;;;;;;;;;;;21.90;58.30;;;;;;5092162;28;19924;-59
2021/12/04 05:14:33;;;;;;;;;;;21.90;58.30;;;;;;5091389;28;19939;-59
2021/12/04 05:19:54;;;;;;;;;;;21.90;58.30;;;;;;5031961;28;20359;-57
2021/12/04 05:22:22;;;;;;;;;;;21.90;58.30;;;;;;5031717;28;19925;-59
2021/12/04 05:24:49;;;;;;;;;;;21.90;58.30;;;;;;5031861;28;19925;-59
2021/12/04 05:27:17;;;;;;;;;;;21.90;58.30;;;;;;5031692;28;19926;-56
2021/12/04 05:29:43;;;;;;;;;;;21.90;58.20;;;;;;5027294;28;19941;-57
2021/12/04 05:32:11;;;;;;;;;;;21.90;58.30;;;;;;5012070;28;19929;-58
2021/12/04 05:34:38;;;;;;;;;;;21.90;58.20;;;;;;5011832;28;19933;-53
2021/12/04 05:37:05;;;;;;;;;;;21.90;58.20;;;;;;5011967;28;19968;-58
2021/12/04 05:39:32;;;;;;;;;;;21.90;58.30;;;;;;4995644;28;19941;-54
2021/12/04 05:42:00;;;;;;;;;;;21.90;58.80;;;;;;5013283;28;20389;-53
2021/12/04 05:44:30;;;;;;;;;;;21.90;58.30;;;;;;5016003;28;19925;-54
2021/12/04 05:47:07;;;;;;;;;;;21.90;58.20;;;;;;5014837;28;19976;-58
2021/12/04 05:50:37;;;;;;;;;;;21.90;58.20;;;;;;5015778;28;19933;-58
2021/12/04 05:57:34;;;;;;;;;;;21.90;58.20;;;;;;5048086;28;19924;-55
2021/12/04 06:00:02;;;;;;;;;;;21.90;58.20;;;;;;5060534;28;19988;-57
2021/12/04 06:02:29;;;;;;;;;;;21.90;58.20;;;;;;5097489;28;19924;-57
2021/12/04 06:04:57;;;;;;;;;;;21.90;58.20;;;;;;5097523;28;19924;-58
2021/12/04 06:07:23;;;;;;;;;;;21.90;58.30;;;;;;5097486;28;19931;-56
2021/12/04 06:09:50;;;;;;;;;;;21.90;58.20;;;;;;5097426;28;20383;-55
2021/12/04 06:12:17;;;;;;;;;;;21.90;58.30;;;;;;5097371;28;19924;-57
2021/12/04 06:14:46;;;;;;;;;;;21.90;58.30;;;;;;5097279;28;20379;-53
2021/12/04 06:17:14;;;;;;;;;;;21.90;58.20;;;;;;5094752;28;19947;-50
2021/12/04 06:22:38;;;;;;;;;;;21.90;58.20;;;;;;5097037;28;19924;-54
2021/12/04 06:25:16;;;;;;;;;;;21.90;58.30;;;;;;5097185;28;19928;-55
2021/12/04 06:27:43;;;;;;;;;;;21.90;58.30;;;;;;5097141;28;19978;-58
2021/12/04 06:30:11;;;;;;;;;;;21.90;58.20;;;;;;5094731;28;19931;-59
2021/12/04 06:32:39;;;;;;;;;;;21.90;58.30;;;;;;5076941;28;20342;-58
2021/12/04 06:35:07;;;;;;;;;;;21.90;58.20;;;;;;5076899;28;20349;-59
2021/12/04 06:37:34;;;;;;;;;;;21.90;58.20;;;;;;5076931;28;19970;-52
2021/12/04 06:40:03;;;;;;;;;;;21.90;58.30;;;;;;5076570;28;19931;-53
2021/12/04 06:42:30;;;;;;;;;;;21.90;58.20;;;;;;5058814;28;20411;-59
2021/12/04 06:44:57;;;;;;;;;;;21.90;58.20;;;;;;5076473;28;19924;-54
2021/12/04 06:47:24;;;;;;;;;;;21.90;58.20;;;;;;5092489;28;19924;-58
2021/12/04 06:49:55;;;;;;;;;;;21.90;58.20;;;;;;5096673;28;19924;-57
2021/12/04 06:52:25;;;;;;;;;;;21.90;58.20;;;;;;5096337;28;20375;-58
2021/12/04 06:54:58;;;;;;;;;;;21.90;58.20;;;;;;5096852;28;19935;-59
2021/12/04 06:57:25;;;;;;;;;;;21.90;58.20;;;;;;5096378;28;19928;-59
2021/12/04 06:59:55;;;;;;;;;;;21.90;58.20;;;;;;5096837;28;19935;-59
2021/12/04 07:02:22;;;;;;;;;;;21.90;58.20;;;;;;5093726;28;19930;-59
2021/12/04 07:04:49;;;;;;;;;;;21.90;58.20;;;;;;5096654;28;20015;-57
2021/12/04 07:07:16;;;;;;;;;;;21.90;58.20;;;;;;5096313;28;19954;-55
2021/12/04 07:09:43;;;;;;;;;;;21.90;58.20;;;;;;5096273;28;20018;-58
2021/12/04 07:12:11;;;;;;;;;;;21.90;58.20;;;;;;5078375;28;19931;-54
2021/12/04 07:14:38;;;;;;;;;;;21.90;58.20;;;;;;5096216;28;19931;-56
2021/12/04 07:17:07;;;;;;;;;;;21.90;58.10;;;;;;5093754;28;20330;-59
2021/12/04 07:19:34;;;;;;;;;;;21.90;58.10;;;;;;5096104;28;19931;-60
2021/12/04 07:22:02;;;;;;;;;;;21.90;58.10;;;;;;5096359;28;19924;-56
2021/12/04 07:24:32;;;;;;;;;;;21.90;58.10;;;;;;5095861;28;19924;-59
2021/12/04 07:26:59;;;;;;;;;;;21.90;58.10;;;;;;5095962;28;19924;-60
2021/12/04 07:29:26;;;;;;;;;;;21.90;58.10;;;;;;5095924;28;19924;-59
2021/12/04 07:31:53;;;;;;;;;;;21.90;58.10;;;;;;5093514;28;19931;-59
2021/12/04 07:34:20;;;;;;;;;;;21.90;58.00;;;;;;5095688;28;19931;-59
2021/12/04 07:36:47;;;;;;;;;;;21.90;58.00;;;;;;5077810;28;19931;-60
2021/12/04 07:39:14;;;;;;;;;;;21.90;58.00;;;;;;5095730;28;19970;-58
2021/12/04 07:41:42;;;;;;;;;;;21.90;57.90;;;;;;5095692;28;20383;-57
2021/12/04 07:44:10;;;;;;;;;;;21.90;57.90;;;;;;5095369;28;19924;-55
2021/12/04 07:46:38;;;;;;;;;;;21.90;57.90;;;;;;5092917;28;19924;-55
2021/12/04 07:49:06;;;;;;;;;;;21.90;57.90;;;;;;5095835;28;19924;-55
2021/12/04 07:51:33;;;;;;;;;;;21.90;57.90;;;;;;5095459;28;19928;-58
2021/12/04 07:54:00;;;;;;;;;;;21.90;57.80;;;;;;5095255;28;19924;-58
2021/12/04 07:56:27;;;;;;;;;;;22.00;57.90;;;;;;5095261;28;19924;-60
2021/12/04 07:58:54;;;;;;;;;;;22.00;57.80;;;;;;5095213;28;19924;-57
2021/12/04 08:01:21;;;;;;;;;;;22.00;57.90;;;;;;5092982;28;19928;-54
2021/12/04 08:03:49;;;;;;;;;;;22.00;57.80;;;;;;5095200;28;19924;-60
2021/12/04 08:06:16;;;;;;;;;;;22.00;57.70;;;;;;5095156;28;19931;-57
2021/12/04 08:08:43;;;;;;;;;;;22.00;57.70;;;;;;5095427;28;19935;-58
2021/12/04 08:11:10;;;;;;;;;;;22.00;57.70;;;;;;5095108;28;19931;-58
2021/12/04 08:13:37;;;;;;;;;;;22.00;57.70;;;;;;5095086;28;20379;-57
2021/12/04 08:16:04;;;;;;;;;;;22.00;57.60;;;;;;5095242;28;19924;-56
2021/12/04 08:18:31;;;;;;;;;;;22.00;57.60;;;;;;5092752;28;19924;-57
2021/12/04 08:20:59;;;;;;;;;;;22.00;57.50;;;;;;5094932;28;19931;-58
2021/12/04 08:23:26;;;;;;;;;;;22.00;57.50;;;;;;5094939;28;19931;-55
2021/12/04 08:25:53;;;;;;;;;;;22.10;57.50;;;;;;5095113;28;19924;-52
2021/12/04 08:28:20;;;;;;;;;;;22.10;57.50;;;;;;5095079;28;19924;-54
2021/12/04 08:30:47;;;;;;;;;;;22.10;57.50;;;;;;5094989;28;20394;-54
2021/12/04 08:33:14;;;;;;;;;;;22.10;57.40;;;;;;5091857;28;19924;-52
2021/12/04 08:35:42;;;;;;;;;;;22.10;57.30;;;;;;5094773;28;19947;-58
2021/12/04 08:38:10;;;;;;;;;;;22.10;57.30;;;;;;5094615;28;19924;-57
2021/12/04 08:40:38;;;;;;;;;;;22.10;57.30;;;;;;5094844;28;20291;-59
2021/12/04 08:43:05;;;;;;;;;;;22.10;57.20;;;;;;5094441;28;19931;-51
2021/12/04 08:45:33;;;;;;;;;;;22.10;57.20;;;;;;5094780;28;19928;-56
2021/12/04 08:48:00;;;;;;;;;;;22.20;57.30;;;;;;5091614;28;20410;-57
2021/12/04 08:50:28;;;;;;;;;;;22.20;57.20;;;;;;5094396;28;19970;-56
2021/12/04 08:52:56;;;;;;;;;;;22.20;57.20;;;;;;5076289;28;19931;-58
2021/12/04 08:55:24;;;;;;;;;;;22.20;57.10;;;;;;5094536;28;20321;-57
2021/12/04 08:57:51;;;;;;;;;;;22.20;57.10;;;;;;5094427;28;19924;-57
2021/12/04 09:00:24;;;;;;;;;;;22.20;57.00;;;;;;5094520;28;19977;-59
2021/12/04 09:02:52;;;;;;;;;;;22.20;57.00;;;;;;5092099;28;19946;-57
2021/12/04 09:05:20;;;;;;;;;;;22.20;56.90;;;;;;5094139;28;19924;-53
2021/12/04 09:07:48;;;;;;;;;;;22.30;57.00;;;;;;5094124;28;19924;-58
2021/12/04 09:10:16;;;;;;;;;;;22.30;57.00;;;;;;5095226;28;19924;-58
2021/12/04 09:12:44;;;;;;;;;;;22.30;56.90;;;;;;5094359;28;19932;-57
2021/12/04 09:15:13;;;;;;;;;;;22.30;56.90;;;;;;5094320;28;20288;-57
2021/12/04 09:17:40;;;;;;;;;;;22.30;56.80;;;;;;5090461;28;19931;-54
2021/12/04 09:20:08;;;;;;;;;;;22.30;56.80;;;;;;5093949;28;20014;-56
2021/12/04 09:22:37;;;;;;;;;;;22.30;56.70;;;;;;5093730;28;19924;-58
2021/12/04 09:25:05;;;;;;;;;;;22.40;56.80;;;;;;5094222;28;19954;-58
2021/12/04 09:27:45;;;;;;;;;;;22.40;56.70;;;;;;5094157;28;19924;-56
2021/12/04 09:30:37;;;;;;;;;;;22.40;56.70;;;;;;5093860;28;19931;-59
2021/12/04 09:33:31;;;;;;;;;;;22.40;56.60;;;;;;5091483;28;19932;-54
2021/12/04 10:11:42;;;;;;;;;;;22.70;56.10;;;;;;5093827;28;19989;-58
2021/12/04 10:14:24;;;;;;;;;;;22.70;56.00;;;;;;5093401;28;20015;-60
2021/12/04 10:17:28;;;;;;;;;;;22.70;56.00;;;;;;5093691;28;19971;-54
2021/12/04 10:33:27;;;;;;;;;;;22.80;55.70;;;;;;5094280;28;20375;-58
2021/12/04 10:35:54;;;;;;;;;;;22.80;55.70;;;;;;5096883;28;20409;-60
2021/12/04 10:38:23;;;;;;;;;;;22.80;55.60;;;;;;5096940;28;19924;-56
2021/12/04 10:40:52;;;;;;;;;;;22.80;56.10;;;;;;5096911;28;19924;-57
2021/12/04 10:43:24;;;;;;;;;;;22.90;55.50;;;;;;5097156;28;19931;-56
2021/12/04 10:45:54;;;;;;;;;;;22.90;55.50;;;;;;5078898;28;19924;-54
2021/12/04 10:48:26;;;;;;;;;;;22.90;55.50;;;;;;5094161;28;19924;-60
2021/12/04 10:53:57;;;;;;;;;;;22.90;55.40;;;;;;5083671;28;20394;-58
2021/12/04 11:18:45;;;;;;;;;;;22.90;55.30;;;;;;5029961;28;21066;-56
2021/12/04 11:35:20;;;;;;;;;;;23.00;55.30;;;;;;5012480;28;20024;-59
2021/12/04 11:42:54;;;;;;;;;;;23.00;55.20;;;;;;5015479;28;19952;-58
2021/12/04 11:45:30;;;;;;;;;;;23.00;55.20;;;;;;5055757;28;19925;-57
2021/12/04 11:47:59;;;;;;;;;;;23.00;55.20;;;;;;5055321;28;19932;-59
2021/12/04 11:50:26;;;;;;;;;;;23.00;55.10;;;;;;5086766;28;19924;-56
2021/12/04 11:52:54;;;;;;;;;;;23.00;55.10;;;;;;5095296;28;20337;-58
2021/12/04 11:55:23;;;;;;;;;;;23.00;55.10;;;;;;5095440;28;20414;-58
2021/12/04 11:57:51;;;;;;;;;;;23.00;55.20;;;;;;5095348;28;19928;-57
2021/12/04 12:00:25;;;;;;;;;;;23.00;55.20;;;;;;5095359;28;19924;-60
2021/12/04 12:03:12;;;;;;;;;;;23.00;55.20;;;;;;5095221;28;20011;-59
2021/12/04 12:05:45;;;;;;;;;;;23.00;55.10;;;;;;5092570;28;19979;-59
2021/12/04 12:08:23;;;;;;;;;;;23.00;55.10;;;;;;5095114;28;20014;-59
2021/12/04 12:10:54;;;;;;;;;;;23.00;55.10;;;;;;5095456;28;19931;-57
2021/12/04 12:13:23;;;;;;;;;;;23.00;55.10;;;;;;5095448;28;20291;-54
2021/12/04 12:15:57;;;;;;;;;;;23.00;55.10;;;;;;5095367;28;20014;-58
2021/12/04 12:18:25;;;;;;;;;;;23.00;55.10;;;;;;5094894;28;19932;-59
2021/12/04 12:20:57;;;;;;;;;;;23.00;55.00;;;;;;5092583;28;20345;-59
2021/12/04 12:23:28;;;;;;;;;;;23.00;55.10;;;;;;5095083;28;19928;-53
2021/12/04 12:26:26;;;;;;;;;;;23.00;55.10;;;;;;5094895;28;19924;-54
2021/12/04 12:37:14;;;;;;;;;;;23.00;55.00;;;;;;5094586;28;19924;-59
2021/12/04 12:39:53;;;;;;;;;;;23.00;55.00;;;;;;5094553;28;19924;-60
2021/12/04 12:42:26;;;;;;;;;;;23.00;55.10;;;;;;5077020;28;19924;-58
2021/12/04 12:44:54;;;;;;;;;;;23.00;55.10;;;;;;5094837;28;20292;-56
2021/12/04 12:47:21;;;;;;;;;;;23.00;55.10;;;;;;5094703;28;19924;-54
2021/12/04 12:49:49;;;;;;;;;;;23.00;55.10;;;;;;5068608;28;20395;-57
2021/12/04 12:52:20;;;;;;;;;;;23.00;55.10;;;;;;5074065;28;20061;-56
2021/12/04 12:54:57;;;;;;;;;;;23.00;55.10;;;;;;5074092;28;20408;-59
2021/12/04 12:57:27;;;;;;;;;;;23.00;55.10;;;;;;5074420;28;20023;-57
2021/12/04 13:13:53;;;;;;;;;;;23.00;55.10;;;;;;5095267;28;19927;-57
2021/12/04 13:16:30;;;;;;;;;;;23.00;55.10;;;;;;5094269;28;20298;-60
2021/12/04 13:19:00;;;;;;;;;;;23.00;55.00;;;;;;5094031;28;19924;-56
2021/12/04 13:21:27;;;;;;;;;;;23.00;55.00;;;;;;5091607;28;19928;-59
2021/12/04 13:23:56;;;;;;;;;;;23.00;55.10;;;;;;5093961;28;20018;-59
2021/12/04 13:26:29;;;;;;;;;;;23.00;55.00;;;;;;5093753;28;19974;-56
2021/12/04 13:28:58;;;;;;;;;;;23.00;55.00;;;;;;5093830;28;20019;-59
2021/12/04 13:31:26;;;;;;;;;;;23.00;55.00;;;;;;5093837;28;19924;-58
2021/12/04 13:33:54;;;;;;;;;;;23.00;55.00;;;;;;5093971;28;19935;-58
2021/12/04 13:36:23;;;;;;;;;;;23.00;55.00;;;;;;5091461;28;19924;-56
2021/12/04 13:39:18;;;;;;;;;;;23.00;55.00;;;;;;5094109;28;20302;-60
2021/12/04 13:41:46;;;;;;;;;;;23.00;55.00;;;;;;5091987;28;20446;-59
2021/12/04 13:44:17;;;;;;;;;;;23.00;55.00;;;;;;5093975;28;19934;-60
2021/12/04 13:46:52;;;;;;;;;;;23.00;55.60;;;;;;5075661;28;19924;-58
2021/12/04 13:49:21;;;;;;;;;;;23.00;54.90;;;;;;5094219;28;20014;-57
2021/12/04 13:51:53;;;;;;;;;;;23.00;55.00;;;;;;5090839;28;19924;-59
2021/12/04 13:54:21;;;;;;;;;;;23.00;55.00;;;;;;5093374;28;19924;-59
2021/12/04 13:56:48;;;;;;;;;;;23.00;54.90;;;;;;5093845;28;20302;-56
2021/12/04 13:59:20;;;;;;;;;;;23.00;54.90;;;;;;5093289;28;19930;-59
2021/12/04 14:01:47;;;;;;;;;;;23.00;54.90;;;;;;5093483;28;19924;-60
2021/12/04 14:04:18;;;;;;;;;;;23.00;54.80;;;;;;5097080;28;20007;-59
2021/12/04 14:06:48;;;;;;;;;;;23.00;54.80;;;;;;5094923;28;19931;-59
2021/12/04 14:09:16;;;;;;;;;;;23.00;54.80;;;;;;5097683;28;19931;-52
2021/12/04 14:11:51;;;;;;;;;;;23.00;54.80;;;;;;5097614;28;19924;-57
2021/12/04 14:14:20;;;;;;;;;;;23.00;54.80;;;;;;5097343;28;20396;-59
2021/12/04 14:16:50;;;;;;;;;;;23.00;54.90;;;;;;5097173;28;19956;-56
2021/12/04 14:19:19;;;;;;;;;;;23.00;54.90;;;;;;5097224;28;20015;-59
2021/12/04 14:21:55;;;;;;;;;;;23.00;54.90;;;;;;5094818;28;20291;-57
2021/12/04 14:24:32;;;;;;;;;;;23.00;54.90;;;;;;5097001;28;19924;-52
2021/12/04 14:27:01;;;;;;;;;;;23.00;54.90;;;;;;5097717;28;19924;-58
2021/12/04 14:29:31;;;;;;;;;;;23.00;54.90;;;;;;5097097;28;19928;-60
2021/12/04 14:31:59;;;;;;;;;;;23.00;54.90;;;;;;5097287;28;20294;-59
2021/12/04 14:34:27;;;;;;;;;;;23.00;55.00;;;;;;5097796;28;19931;-57
2021/12/04 14:37:14;;;;;;;;;;;23.00;55.60;;;;;;5076611;28;19924;-54
2021/12/04 14:39:43;;;;;;;;;;;23.00;55.00;;;;;;5097269;28;20300;-58
2021/12/04 14:42:21;;;;;;;;;;;23.00;55.00;;;;;;5096772;28;19924;-58
2021/12/04 14:44:57;;;;;;;;;;;23.00;55.00;;;;;;5096812;28;20011;-59
2021/12/04 14:47:28;;;;;;;;;;;22.90;54.90;;;;;;5097132;28;19946;-58
2021/12/04 14:49:59;;;;;;;;;;;23.00;55.10;;;;;;5097087;28;19924;-59
2021/12/04 14:52:28;;;;;;;;;;;23.00;55.00;;;;;;5093859;28;19971;-59
2021/12/04 14:54:56;;;;;;;;;;;23.00;55.00;;;;;;5096907;28;19928;-58
2021/12/04 14:57:25;;;;;;;;;;;23.00;55.00;;;;;;5096279;28;20007;-58
2021/12/04 15:00:07;;;;;;;;;;;23.00;55.00;;;;;;5079041;28;20303;-57
2021/12/04 15:02:34;;;;;;;;;;;23.00;55.00;;;;;;5096716;28;20288;-59
2021/12/04 15:05:03;;;;;;;;;;;23.00;55.00;;;;;;5096427;28;19924;-56
2021/12/04 15:07:33;;;;;;;;;;;23.00;55.00;;;;;;5093676;28;19930;-59
2021/12/04 15:10:19;;;;;;;;;;;23.00;55.00;;;;;;5096385;28;19924;-57
2021/12/04 15:12:46;;;;;;;;;;;23.00;55.00;;;;;;5096283;28;19930;-57
2021/12/04 15:15:13;;;;;;;;;;;23.00;55.60;;;;;;5096211;28;20014;-55
2021/12/04 15:17:42;;;;;;;;;;;23.00;55.00;;;;;;5096140;28;19982;-59
2021/12/04 15:20:15;;;;;;;;;;;22.90;55.50;;;;;;5096084;28;19930;-58
2021/12/04 15:22:44;;;;;;;;;;;23.00;54.90;;;;;;5093647;28;19924;-59
2021/12/04 15:25:13;;;;;;;;;;;23.00;55.00;;;;;;5078134;28;19930;-59
2021/12/04 15:27:40;;;;;;;;;;;23.00;55.00;;;;;;5096322;28;19925;-55
2021/12/04 15:30:10;;;;;;;;;;;23.00;55.00;;;;;;5092455;28;19932;-58
2021/12/04 15:32:38;;;;;;;;;;;23.00;55.00;;;;;;5054580;28;20003;-56
2021/12/04 15:35:18;;;;;;;;;;;23.00;54.90;;;;;;5058072;28;20287;-57
2021/12/04 15:37:54;;;;;;;;;;;23.00;54.90;;;;;;5089552;28;19924;-59
2021/12/04 15:40:30;;;;;;;;;;;23.00;54.80;;;;;;5096137;28;19961;-60
2021/12/04 15:43:16;;;;;;;;;;;23.00;54.80;;;;;;5095724;28;19972;-58
2021/12/04 15:46:50;;;;;;;;;;;23.00;54.80;;;;;;5095973;28;20295;-53
2021/12/04 15:53:57;;;;;;;;;;;23.00;54.70;;;;;;5075440;28;19938;-61
2021/12/04 15:56:35;;;;;;;;;;;23.00;54.60;;;;;;5075203;28;20372;-58
2021/12/04 15:59:04;;;;;;;;;;;23.00;54.60;;;;;;5075040;28;20286;-55
2021/12/04 16:01:31;;;;;;;;;;;23.00;54.60;;;;;;5057329;28;19931;-60
2021/12/04 16:03:59;;;;;;;;;;;23.00;54.60;;;;;;5075008;28;19964;-56
2021/12/04 16:06:36;;;;;;;;;;;23.00;54.60;;;;;;5074322;28;19938;-53
2021/12/04 16:09:04;;;;;;;;;;;23.00;54.60;;;;;;5075247;28;20303;-52
2021/12/04 16:11:37;;;;;;;;;;;23.00;54.70;;;;;;5075210;28;20042;-53
2021/12/04 16:14:05;;;;;;;;;;;23.00;54.70;;;;;;5075141;28;19926;-59
2021/12/04 16:16:33;;;;;;;;;;;23.00;54.80;;;;;;5074761;28;19924;-56
2021/12/04 16:19:01;;;;;;;;;;;23.00;54.70;;;;;;5074543;28;19946;-60
2021/12/04 16:21:28;;;;;;;;;;;23.00;54.70;;;;;;5074263;28;20412;-58
2021/12/04 16:23:55;;;;;;;;;;;23.00;54.70;;;;;;5074762;28;19955;-56
2021/12/04 16:26:24;;;;;;;;;;;23.00;54.70;;;;;;5074459;28;20352;-58
2021/12/04 16:29:13;;;;;;;;;;;23.00;54.70;;;;;;5074533;28;19978;-59
2021/12/04 16:37:33;;;;;;;;;;;23.00;54.70;;;;;;5073264;28;19950;-57
2021/12/04 16:40:02;;;;;;;;;;;23.00;54.70;;;;;;5074408;28;19924;-60
2021/12/04 16:42:29;;;;;;;;;;;23.00;54.70;;;;;;5074640;28;19931;-60
2021/12/04 16:45:16;;;;;;;;;;;23.00;54.70;;;;;;5074252;28;19924;-59
2021/12/04 16:47:46;;;;;;;;;;;23.00;54.60;;;;;;5074266;28;19928;-53
2021/12/04 16:50:17;;;;;;;;;;;23.00;54.70;;;;;;5074458;28;19925;-56
2021/12/04 16:56:23;;;;;;;;;;;23.00;54.70;;;;;;5074153;28;19931;-58
2021/12/04 16:58:24;;;;;;;;;;;23.00;54.70;;;;;;5071164;28;19925;-60
2021/12/04 17:00:52;;;;;;;;;;;23.00;54.70;;;;;;5074014;28;20384;-56
2021/12/04 17:03:20;;;;;;;;;;;23.00;54.70;;;;;;5074202;28;20010;-59
2021/12/04 17:05:47;;;;;;;;;;;23.00;54.80;;;;;;5073968;28;19931;-60
2021/12/04 17:08:14;;;;;;;;;;;23.00;54.80;;;;;;5072832;28;20395;-58
2021/12/04 17:10:41;;;;;;;;;;;23.00;54.80;;;;;;5073939;28;19924;-55
2021/12/04 17:13:12;;;;;;;;;;;23.00;54.80;;;;;;5072548;28;19925;-60
2021/12/04 17:15:49;;;;;;;;;;;23.00;54.80;;;;;;5071738;28;19925;-52
2021/12/04 17:18:28;;;;;;;;;;;23.00;54.80;;;;;;5070185;28;19947;-60
2021/12/04 17:20:57;;;;;;;;;;;23.10;54.90;;;;;;5074029;28;19947;-57
2021/12/04 17:23:25;;;;;;;;;;;23.10;54.90;;;;;;5072519;28;19928;-59
2021/12/04 17:25:53;;;;;;;;;;;23.00;54.80;;;;;;5073255;28;19929;-55
2021/12/04 17:28:22;;;;;;;;;;;23.10;54.90;;;;;;5073692;28;19931;-59
2021/12/04 17:30:49;;;;;;;;;;;23.10;54.90;;;;;;5056254;28;19924;-59
2021/12/04 17:33:16;;;;;;;;;;;23.00;54.80;;;;;;5073516;28;19925;-59
2021/12/04 17:35:43;;;;;;;;;;;23.10;54.90;;;;;;5073954;28;19952;-60
2021/12/04 17:38:11;;;;;;;;;;;23.00;54.80;;;;;;5071801;28;20387;-58
2021/12/04 17:40:39;;;;;;;;;;;23.10;54.90;;;;;;5073548;28;20396;-54
2021/12/04 17:43:06;;;;;;;;;;;23.10;54.90;;;;;;5073539;28;20359;-57
2021/12/04 17:45:33;;;;;;;;;;;23.10;54.90;;;;;;5056161;28;19963;-55